Time;durP1;ratioP1;P1;durP2;ratioP2;P2;SDS_P1;SDS_P2;PMS_P1;PMS_P2;Temp;Humidity;BMP_temperature;BMP_pressure;BME280_temperature;BME280_humidity;BME280_pressure;Samples;Min_cycle;Max_cycle;Signal;HPM_P1;HPM_P2
2021/10/11 00:00:12;;;;;;;;;;;11.10;99.90;;;;;;5034694;28;19974;-78
2021/10/11 00:02:38;;;;;;;;;;;11.10;99.90;;;;;;5035718;28;19921;-79
2021/10/11 00:05:04;;;;;;;;;;;11.20;99.90;;;;;;5033985;28;19913;-79
2021/10/11 00:07:30;;;;;;;;;;;11.20;99.90;;;;;;5034235;28;19932;-79
2021/10/11 00:09:55;;;;;;;;;;;11.20;99.90;;;;;;5018537;28;19921;-80
2021/10/11 00:12:24;;;;;;;;;;;11.30;99.90;;;;;;5018062;28;19910;-80
2021/10/11 00:14:53;;;;;;;;;;;11.30;99.90;;;;;;5018092;28;19955;-80
2021/10/11 00:17:19;;;;;;;;;;;11.30;99.90;;;;;;5019807;28;19983;-79
2021/10/11 00:19:46;;;;;;;;;;;11.30;99.90;;;;;;5032843;28;20013;-79
2021/10/11 00:22:11;;;;;;;;;;;11.40;99.90;;;;;;5018335;28;19964;-79
2021/10/11 00:24:37;;;;;;;;;;;11.40;99.90;;;;;;5034050;28;19914;-79
2021/10/11 00:27:02;;;;;;;;;;;11.40;99.90;;;;;;5035300;28;19913;-80
2021/10/11 00:29:28;;;;;;;;;;;11.40;99.90;;;;;;5033025;28;20464;-77
2021/10/11 00:31:53;;;;;;;;;;;11.40;99.90;;;;;;5023580;28;19914;-79
2021/10/11 00:34:19;;;;;;;;;;;11.40;99.90;;;;;;5015972;28;19918;-80
2021/10/11 00:36:44;;;;;;;;;;;11.40;99.90;;;;;;5032884;28;19917;-79
2021/10/11 00:39:10;;;;;;;;;;;11.50;99.90;;;;;;5034236;28;19988;-80
2021/10/11 00:41:35;;;;;;;;;;;11.50;99.90;;;;;;5025863;28;20012;-81
2021/10/11 00:44:02;;;;;;;;;;;11.50;99.90;;;;;;5011117;28;20108;-78
2021/10/11 00:46:27;;;;;;;;;;;11.50;1.00;;;;;;5033026;28;19916;-81
2021/10/11 00:48:53;;;;;;;;;;;11.50;1.00;;;;;;5036845;28;19913;-77
2021/10/11 00:51:18;;;;;;;;;;;11.50;1.00;;;;;;5029029;28;19940;-80
2021/10/11 00:53:44;;;;;;;;;;;11.60;1.00;;;;;;5030794;28;19913;-81
2021/10/11 00:56:09;;;;;;;;;;;11.50;1.00;;;;;;5030762;28;19936;-77
2021/10/11 00:58:35;;;;;;;;;;;11.60;1.00;;;;;;5030710;28;19966;-78
2021/10/11 01:01:00;;;;;;;;;;;11.60;1.00;;;;;;5009171;28;19913;-81
2021/10/11 01:03:26;;;;;;;;;;;11.60;1.00;;;;;;5024041;28;19939;-79
2021/10/11 01:05:52;;;;;;;;;;;11.70;1.00;;;;;;5028242;28;20274;-78
2021/10/11 01:08:17;;;;;;;;;;;11.70;1.00;;;;;;5016652;28;19913;-79
2021/10/11 01:10:44;;;;;;;;;;;11.70;1.00;;;;;;5024886;28;20381;-80
2021/10/11 01:13:10;;;;;;;;;;;11.70;1.00;;;;;;5027114;28;19909;-80
2021/10/11 01:15:35;;;;;;;;;;;11.70;1.00;;;;;;5032212;28;20297;-80
2021/10/11 01:18:01;;;;;;;;;;;11.70;1.00;;;;;;5034776;28;19958;-79
2021/10/11 01:20:28;;;;;;;;;;;11.70;1.00;;;;;;5030604;28;19923;-80
2021/10/11 01:22:54;;;;;;;;;;;11.80;1.00;;;;;;5024816;28;19934;-80
2021/10/11 01:25:20;;;;;;;;;;;11.80;1.00;;;;;;5016365;28;20007;-79
2021/10/11 01:27:45;;;;;;;;;;;11.80;1.00;;;;;;5035095;28;19944;-77
2021/10/11 01:30:12;;;;;;;;;;;11.90;1.00;;;;;;5033637;28;19920;-80
2021/10/11 01:32:42;;;;;;;;;;;11.90;1.00;;;;;;5027778;28;19940;-80
2021/10/11 01:35:07;;;;;;;;;;;11.90;1.00;;;;;;5035019;28;19921;-80
2021/10/11 01:37:34;;;;;;;;;;;11.90;1.00;;;;;;5035522;28;19920;-80
2021/10/11 01:39:59;;;;;;;;;;;12.00;1.00;;;;;;5032626;28;19927;-80
2021/10/11 01:42:25;;;;;;;;;;;12.00;1.00;;;;;;5024325;28;20000;-79
2021/10/11 01:44:50;;;;;;;;;;;12.00;1.00;;;;;;5032964;28;19917;-78
2021/10/11 01:47:16;;;;;;;;;;;12.00;1.00;;;;;;5025558;28;19931;-80
2021/10/11 01:49:42;;;;;;;;;;;12.10;1.00;;;;;;5033665;28;19913;-78
2021/10/11 01:52:08;;;;;;;;;;;12.10;1.00;;;;;;5032299;28;19952;-80
2021/10/11 01:54:34;;;;;;;;;;;12.10;1.00;;;;;;5026094;28;19913;-81
2021/10/11 01:56:59;;;;;;;;;;;12.10;1.00;;;;;;5033130;28;19913;-80
2021/10/11 01:59:25;;;;;;;;;;;12.20;1.00;;;;;;5031749;28;19925;-80
2021/10/11 02:01:50;;;;;;;;;;;12.20;1.00;;;;;;5029584;28;20385;-79
2021/10/11 02:04:16;;;;;;;;;;;12.20;1.00;;;;;;5023794;28;19957;-80
2021/10/11 02:06:41;;;;;;;;;;;12.20;1.00;;;;;;5033589;28;20288;-78
2021/10/11 02:09:06;;;;;;;;;;;12.20;1.00;;;;;;5032777;28;19913;-79
2021/10/11 02:11:32;;;;;;;;;;;12.20;1.00;;;;;;5016696;28;19996;-80
2021/10/11 02:13:57;;;;;;;;;;;12.20;1.00;;;;;;5034231;28;19910;-80
2021/10/11 02:16:23;;;;;;;;;;;12.20;1.00;;;;;;5034237;28;19955;-78
2021/10/11 02:18:48;;;;;;;;;;;12.20;1.00;;;;;;5011860;28;19925;-79
2021/10/11 02:21:14;;;;;;;;;;;12.20;1.00;;;;;;5031213;28;19972;-80
2021/10/11 02:23:39;;;;;;;;;;;12.20;1.00;;;;;;5033928;28;19913;-80
2021/10/11 02:26:05;;;;;;;;;;;12.10;1.00;;;;;;5030283;28;20375;-80
2021/10/11 02:28:30;;;;;;;;;;;12.10;1.00;;;;;;5034482;28;19909;-80
2021/10/11 02:30:56;;;;;;;;;;;12.10;1.00;;;;;;5033696;28;19919;-79
2021/10/11 02:33:21;;;;;;;;;;;12.20;1.00;;;;;;5034521;28;20300;-80
2021/10/11 02:35:47;;;;;;;;;;;12.20;1.00;;;;;;5033325;28;20395;-79
2021/10/11 02:38:12;;;;;;;;;;;12.20;1.00;;;;;;5026568;28;19959;-78
2021/10/11 02:40:39;;;;;;;;;;;12.20;1.00;;;;;;5032339;28;19921;-80
2021/10/11 02:43:04;;;;;;;;;;;12.20;1.00;;;;;;5016875;28;20369;-79
2021/10/11 02:45:30;;;;;;;;;;;12.30;1.00;;;;;;5033454;28;19952;-83
2021/10/11 02:47:55;;;;;;;;;;;12.30;1.00;;;;;;5032570;28;19963;-79
2021/10/11 02:50:21;;;;;;;;;;;12.40;1.00;;;;;;5033342;28;19962;-78
2021/10/11 02:52:47;;;;;;;;;;;12.40;1.00;;;;;;5015155;28;19936;-79
2021/10/11 02:55:12;;;;;;;;;;;12.50;1.00;;;;;;5015658;28;19963;-80
2021/10/11 02:57:38;;;;;;;;;;;12.50;1.00;;;;;;5024652;28;19921;-79
2021/10/11 03:00:04;;;;;;;;;;;12.50;1.00;;;;;;5033309;28;19920;-78
2021/10/11 03:02:30;;;;;;;;;;;12.50;1.00;;;;;;5033034;28;19952;-79
2021/10/11 03:04:55;;;;;;;;;;;12.50;1.00;;;;;;5034148;28;19913;-78
2021/10/11 03:07:20;;;;;;;;;;;12.50;1.00;;;;;;5025269;28;19933;-80
2021/10/11 03:09:46;;;;;;;;;;;12.50;1.00;;;;;;5037144;28;20437;-78
2021/10/11 03:12:12;;;;;;;;;;;12.50;1.00;;;;;;5012072;28;19909;-80
2021/10/11 03:14:37;;;;;;;;;;;12.50;1.00;;;;;;5036740;28;20365;-80
2021/10/11 03:17:03;;;;;;;;;;;12.60;1.00;;;;;;5036082;28;19996;-80
2021/10/11 03:19:28;;;;;;;;;;;12.50;1.00;;;;;;5036747;28;19917;-79
2021/10/11 03:21:54;;;;;;;;;;;12.50;1.00;;;;;;5036606;28;19944;-80
2021/10/11 03:24:19;;;;;;;;;;;12.50;1.00;;;;;;5035044;28;19958;-79
2021/10/11 03:26:45;;;;;;;;;;;12.50;1.00;;;;;;5015280;28;20362;-80
2021/10/11 03:29:10;;;;;;;;;;;12.50;1.00;;;;;;5022684;28;19941;-80
2021/10/11 03:31:36;;;;;;;;;;;12.50;1.00;;;;;;5024599;28;19969;-79
2021/10/11 03:34:01;;;;;;;;;;;12.50;1.00;;;;;;5037056;28;19914;-79
2021/10/11 03:36:27;;;;;;;;;;;12.50;1.00;;;;;;5035729;28;19917;-80
2021/10/11 03:38:53;;;;;;;;;;;12.50;1.00;;;;;;5036867;28;20432;-78
2021/10/11 03:41:18;;;;;;;;;;;12.50;1.00;;;;;;5017403;28;19921;-80
2021/10/11 03:43:43;;;;;;;;;;;12.50;1.00;;;;;;5036274;28;19913;-80
2021/10/11 03:46:09;;;;;;;;;;;12.50;1.00;;;;;;5036687;28;20012;-79
2021/10/11 03:48:34;;;;;;;;;;;12.50;1.00;;;;;;5010580;28;19921;-79
2021/10/11 03:51:00;;;;;;;;;;;12.40;1.00;;;;;;5036612;28;19909;-80
2021/10/11 03:53:25;;;;;;;;;;;12.50;1.00;;;;;;5035445;28;19913;-80
2021/10/11 03:55:51;;;;;;;;;;;12.40;1.00;;;;;;5036453;28;19909;-80
2021/10/11 03:58:16;;;;;;;;;;;12.40;1.00;;;;;;5032941;28;19913;-80
2021/10/11 04:00:42;;;;;;;;;;;12.50;1.00;;;;;;5032540;28;19917;-79
2021/10/11 04:03:08;;;;;;;;;;;12.40;1.00;;;;;;5035569;28;20449;-79
2021/10/11 04:05:35;;;;;;;;;;;12.40;1.00;;;;;;5036750;28;20400;-79
2021/10/11 04:08:07;;;;;;;;;;;12.40;1.00;;;;;;5030553;28;19913;-79
2021/10/11 04:10:37;;;;;;;;;;;12.40;1.00;;;;;;5029797;28;19917;-79
2021/10/11 04:13:05;;;;;;;;;;;12.40;1.00;;;;;;5029829;28;19963;-79
2021/10/11 04:15:30;;;;;;;;;;;12.40;1.00;;;;;;5036466;28;19909;-78
2021/10/11 04:17:56;;;;;;;;;;;12.40;1.00;;;;;;5030197;28;20286;-80
2021/10/11 04:20:22;;;;;;;;;;;12.40;1.00;;;;;;5035212;28;19913;-78
2021/10/11 04:22:47;;;;;;;;;;;12.40;1.00;;;;;;5035282;28;19925;-79
2021/10/11 04:25:13;;;;;;;;;;;12.40;1.00;;;;;;5035841;28;20027;-80
2021/10/11 04:27:39;;;;;;;;;;;12.40;1.00;;;;;;5017780;28;19940;-80
2021/10/11 04:30:06;;;;;;;;;;;12.40;1.00;;;;;;5035672;28;19909;-78
2021/10/11 04:32:31;;;;;;;;;;;12.40;1.00;;;;;;5032944;28;19914;-79
2021/10/11 04:34:57;;;;;;;;;;;12.40;1.00;;;;;;5026515;28;19909;-79
2021/10/11 04:37:22;;;;;;;;;;;12.40;1.00;;;;;;5034310;28;19919;-80
2021/10/11 04:39:48;;;;;;;;;;;12.40;1.00;;;;;;5027667;28;19963;-79
2021/10/11 04:42:13;;;;;;;;;;;12.40;1.00;;;;;;5017002;28;20285;-80
2021/10/11 04:44:39;;;;;;;;;;;12.50;1.00;;;;;;5035643;28;19914;-79
2021/10/11 04:47:04;;;;;;;;;;;12.50;1.00;;;;;;5035349;28;19913;-79
2021/10/11 04:49:29;;;;;;;;;;;12.50;1.00;;;;;;5027278;28;19971;-81
2021/10/11 04:51:55;;;;;;;;;;;12.50;1.00;;;;;;5028736;28;19914;-78
2021/10/11 04:54:20;;;;;;;;;;;12.50;1.00;;;;;;5032343;28;19932;-78
2021/10/11 04:56:46;;;;;;;;;;;12.50;1.00;;;;;;5029902;28;20345;-79
2021/10/11 04:59:11;;;;;;;;;;;12.50;1.00;;;;;;5030255;28;19921;-79
2021/10/11 05:01:37;;;;;;;;;;;12.60;1.00;;;;;;5014338;28;20003;-79
2021/10/11 05:04:02;;;;;;;;;;;12.60;1.00;;;;;;5029134;28;20297;-79
2021/10/11 05:06:28;;;;;;;;;;;12.60;1.00;;;;;;5033678;28;20071;-79
2021/10/11 05:08:53;;;;;;;;;;;12.60;1.00;;;;;;5034838;28;19909;-80
2021/10/11 05:11:18;;;;;;;;;;;12.60;1.00;;;;;;5016033;28;19921;-80
2021/10/11 05:13:44;;;;;;;;;;;12.60;1.00;;;;;;5034830;28;19909;-80
2021/10/11 05:16:14;;;;;;;;;;;12.60;1.00;;;;;;5033979;28;19913;-80
2021/10/11 05:18:39;;;;;;;;;;;12.50;1.00;;;;;;5034192;28;19913;-78
2021/10/11 05:21:06;;;;;;;;;;;12.60;1.00;;;;;;5034438;28;19920;-79
2021/10/11 05:23:34;;;;;;;;;;;12.50;1.00;;;;;;5033800;28;19913;-80
2021/10/11 05:26:00;;;;;;;;;;;12.50;1.00;;;;;;5034147;28;20344;-79
2021/10/11 05:28:25;;;;;;;;;;;12.50;1.00;;;;;;5025709;28;19980;-80
2021/10/11 05:30:51;;;;;;;;;;;12.50;1.00;;;;;;5033202;28;19917;-79
2021/10/11 05:33:19;;;;;;;;;;;12.50;1.00;;;;;;5015997;28;19913;-79
2021/10/11 05:35:45;;;;;;;;;;;12.50;1.00;;;;;;5033955;28;19924;-78
2021/10/11 05:38:10;;;;;;;;;;;12.50;1.00;;;;;;5026445;28;19913;-80
2021/10/11 05:40:36;;;;;;;;;;;12.50;1.00;;;;;;5061655;22;19954;-81
2021/10/11 05:43:01;;;;;;;;;;;12.50;1.00;;;;;;5016196;28;20373;-81
2021/10/11 05:45:27;;;;;;;;;;;12.50;1.00;;;;;;5026671;28;19917;-82
2021/10/11 05:47:54;;;;;;;;;;;12.50;1.00;;;;;;5014946;28;19913;-81
2021/10/11 05:50:19;;;;;;;;;;;12.60;1.00;;;;;;5015087;28;19913;-82
2021/10/11 05:52:44;;;;;;;;;;;12.60;1.00;;;;;;5013243;28;19913;-82
2021/10/11 05:55:10;;;;;;;;;;;12.60;1.00;;;;;;5012959;28;20019;-81
2021/10/11 05:57:36;;;;;;;;;;;12.60;1.00;;;;;;5014878;28;19909;-82
2021/10/11 06:00:02;;;;;;;;;;;12.60;1.00;;;;;;5013665;28;19918;-81
2021/10/11 06:02:28;;;;;;;;;;;12.60;1.00;;;;;;5015251;28;19913;-81
2021/10/11 06:04:53;;;;;;;;;;;12.60;1.00;;;;;;5014402;28;20306;-82
2021/10/11 06:07:19;;;;;;;;;;;12.60;1.00;;;;;;5017257;28;20352;-81
2021/10/11 06:09:44;;;;;;;;;;;12.60;1.00;;;;;;5012867;28;19923;-83
2021/10/11 06:12:10;;;;;;;;;;;12.60;1.00;;;;;;5013212;28;19914;-82
2021/10/11 06:14:35;;;;;;;;;;;12.60;1.00;;;;;;5020791;28;20017;-82
2021/10/11 06:17:01;;;;;;;;;;;12.60;1.00;;;;;;5014584;28;19913;-83
2021/10/11 06:19:26;;;;;;;;;;;12.60;1.00;;;;;;5014164;28;19921;-81
2021/10/11 06:21:52;;;;;;;;;;;12.60;1.00;;;;;;5013967;28;20429;-82
2021/10/11 06:24:17;;;;;;;;;;;12.70;1.00;;;;;;5013009;28;19952;-82
2021/10/11 06:26:43;;;;;;;;;;;12.70;1.00;;;;;;5012249;28;19913;-83
2021/10/11 06:29:08;;;;;;;;;;;12.70;1.00;;;;;;5020730;28;19929;-83
2021/10/11 06:31:34;;;;;;;;;;;12.80;1.00;;;;;;5017824;28;19914;-83
2021/10/11 06:34:00;;;;;;;;;;;12.80;1.00;;;;;;5019688;28;19921;-82
2021/10/11 06:36:27;;;;;;;;;;;12.90;1.00;;;;;;5016846;28;19920;-83
2021/10/11 06:38:53;;;;;;;;;;;13.00;1.00;;;;;;5019828;28;19910;-82
2021/10/11 06:41:18;;;;;;;;;;;13.20;1.00;;;;;;5001134;28;20005;-83
2021/10/11 06:43:44;;;;;;;;;;;13.30;1.00;;;;;;5004319;28;19910;-82
2021/10/11 06:46:09;;;;;;;;;;;13.40;1.00;;;;;;5017601;28;19913;-83
2021/10/11 06:48:35;;;;;;;;;;;13.60;99.90;;;;;;5021662;28;19921;-83
2021/10/11 06:51:00;;;;;;;;;;;13.90;99.90;;;;;;5018621;28;19914;-83
2021/10/11 06:53:26;;;;;;;;;;;14.10;99.90;;;;;;5019040;28;20018;-83
2021/10/11 06:55:51;;;;;;;;;;;14.50;1.00;;;;;;4999931;28;19929;-84
2021/10/11 06:58:17;;;;;;;;;;;15.00;46.60;;;;;;5019120;28;19913;-83
2021/10/11 07:00:42;;;;;;;;;;;15.60;1.00;;;;;;5028177;28;20258;-83
2021/10/11 07:03:08;;;;;;;;;;;16.60;1.00;;;;;;5022700;28;19936;-84
2021/10/11 07:05:34;;;;;;;;;;;17.60;1.00;;;;;;5005371;28;19914;-84
2021/10/11 07:08:00;;;;;;;;;;;18.60;1.00;;;;;;5019757;28;19936;-83
2021/10/11 07:10:25;;;;;;;;;;;19.70;99.90;;;;;;5020689;28;19920;-83
2021/10/11 07:12:51;;;;;;;;;;;20.60;1.00;;;;;;5022728;28;19914;-83
2021/10/11 07:15:17;;;;;;;;;;;21.30;1.00;;;;;;5018934;28;19992;-83
2021/10/11 07:17:42;;;;;;;;;;;22.20;1.00;;;;;;5009600;28;19923;-83
2021/10/11 07:20:08;;;;;;;;;;;22.60;1.00;;;;;;5010452;28;19973;-83
2021/10/11 07:22:35;;;;;;;;;;;22.90;1.00;;;;;;5024561;28;19914;-83
2021/10/11 07:25:01;;;;;;;;;;;23.50;99.90;;;;;;5013360;28;20398;-84
2021/10/11 07:27:27;;;;;;;;;;;24.40;99.90;;;;;;5017743;28;19944;-83
2021/10/11 07:29:52;;;;;;;;;;;25.30;99.90;;;;;;5017389;28;19936;-83
2021/10/11 07:32:18;;;;;;;;;;;25.90;99.90;;;;;;5018577;28;19910;-83
2021/10/11 07:34:43;;;;;;;;;;;26.60;99.90;;;;;;5025315;28;19918;-83
2021/10/11 07:37:08;;;;;;;;;;;27.00;99.90;;;;;;5004014;28;19997;-83
2021/10/11 07:39:34;;;;;;;;;;;27.50;99.90;;;;;;5002236;28;20609;-83
2021/10/11 07:42:00;;;;;;;;;;;28.20;99.90;;;;;;5018963;28;20012;-84
2021/10/11 07:44:26;;;;;;;;;;;29.10;99.90;;;;;;5015665;28;20694;-83
2021/10/11 07:46:54;;;;;;;;;;;29.30;99.90;;;;;;5013755;28;19914;-83
2021/10/11 07:49:20;;;;;;;;;;;29.80;99.90;;;;;;4999376;28;19940;-84
2021/10/11 07:51:45;;;;;;;;;;;30.40;99.90;;;;;;5015542;28;19929;-81
2021/10/11 07:54:11;;;;;;;;;;;30.40;99.90;;;;;;5002369;28;20355;-82
2021/10/11 07:56:39;;;;;;;;;;;30.20;99.90;;;;;;5017910;28;19933;-81
2021/10/11 07:59:04;;;;;;;;;;;29.90;99.90;;;;;;5016523;28;19924;-80
2021/10/11 08:01:30;;;;;;;;;;;29.20;99.90;;;;;;5013852;28;20510;-81
2021/10/11 08:03:55;;;;;;;;;;;28.30;99.90;;;;;;5002955;28;19921;-81
2021/10/11 08:06:21;;;;;;;;;;;27.20;99.90;;;;;;5018728;28;19913;-81
2021/10/11 08:08:46;;;;;;;;;;;26.40;99.90;;;;;;5002669;28;19986;-81
2021/10/11 08:11:12;;;;;;;;;;;25.80;99.90;;;;;;5021105;28;19920;-81
2021/10/11 08:13:39;;;;;;;;;;;25.30;99.90;;;;;;5016320;28;20279;-81
2021/10/11 08:16:05;;;;;;;;;;;24.80;99.90;;;;;;5021255;28;20334;-81
2021/10/11 08:18:30;;;;;;;;;;;24.30;99.90;;;;;;5021651;28;19924;-80
2021/10/11 08:20:56;;;;;;;;;;;24.00;99.90;;;;;;5003150;28;19922;-81
2021/10/11 08:23:21;;;;;;;;;;;23.90;99.90;;;;;;5021254;28;19917;-80
2021/10/11 08:25:47;;;;;;;;;;;23.70;99.90;;;;;;4992149;28;19917;-83
2021/10/11 08:28:12;;;;;;;;;;;23.30;99.90;;;;;;5015199;28;19913;-83
2021/10/11 08:30:38;;;;;;;;;;;22.80;99.90;;;;;;5017421;28;19917;-83
2021/10/11 08:33:03;;;;;;;;;;;22.50;99.90;;;;;;5019338;28;19963;-82
2021/10/11 08:35:29;;;;;;;;;;;22.20;99.90;;;;;;5018028;28;19935;-82
2021/10/11 08:37:54;;;;;;;;;;;22.20;99.90;;;;;;5019607;28;19917;-81
2021/10/11 08:40:20;;;;;;;;;;;22.30;99.90;;;;;;5017732;28;20290;-82
2021/10/11 08:42:48;;;;;;;;;;;22.60;99.90;;;;;;5015913;28;20008;-83
2021/10/11 08:45:14;;;;;;;;;;;22.80;99.90;;;;;;5017550;28;19921;-82
2021/10/11 08:47:39;;;;;;;;;;;23.20;99.90;;;;;;5018355;28;19917;-82
2021/10/11 08:50:05;;;;;;;;;;;24.00;99.90;;;;;;5015280;28;19913;-82
2021/10/11 08:52:31;;;;;;;;;;;25.00;99.90;;;;;;5015038;28;19961;-83
2021/10/11 08:54:56;;;;;;;;;;;25.80;99.90;;;;;;4997978;28;19953;-81
2021/10/11 08:57:25;;;;;;;;;;;26.40;99.90;;;;;;5014252;28;19914;-82
2021/10/11 08:59:52;;;;;;;;;;;26.80;99.90;;;;;;5011232;28;20337;-82
2021/10/11 09:02:20;;;;;;;;;;;26.40;99.90;;;;;;5010064;28;19963;-81
2021/10/11 09:04:47;;;;;;;;;;;25.70;99.90;;;;;;4994711;28;19921;-82
2021/10/11 09:07:12;;;;;;;;;;;25.30;99.90;;;;;;5014799;28;19920;-82
2021/10/11 09:09:47;;;;;;;;;;;25.00;99.90;;;;;;5015786;28;19913;-82
2021/10/11 09:12:21;;;;;;;;;;;24.50;99.90;;;;;;5014392;28;19920;-81
2021/10/11 09:14:52;;;;;;;;;;;24.50;99.90;;;;;;5007503;28;19995;-83
2021/10/11 09:17:22;;;;;;;;;;;25.10;99.90;;;;;;5014831;28;19914;-82
2021/10/11 09:19:57;;;;;;;;;;;25.80;99.90;;;;;;5006861;28;20008;-80
2021/10/11 09:22:32;;;;;;;;;;;26.20;99.90;;;;;;5014512;28;19909;-80
2021/10/11 09:24:58;;;;;;;;;;;26.60;99.90;;;;;;5015099;28;19909;-80
2021/10/11 09:27:24;;;;;;;;;;;26.70;99.90;;;;;;5014050;28;20377;-79
2021/10/11 09:29:49;;;;;;;;;;;26.50;99.90;;;;;;5012750;28;19967;-80
2021/10/11 09:32:15;;;;;;;;;;;26.30;99.90;;;;;;5013941;28;20396;-80
2021/10/11 09:36:35;;;;;;;;;;;25.80;99.90;;;;;;5089567;28;19911;-80
2021/10/11 09:39:02;;;;;;;;;;;25.30;99.90;;;;;;5069806;28;19948;-83
2021/10/11 09:41:28;;;;;;;;;;;25.10;99.90;;;;;;5072210;28;19913;-83
2021/10/11 09:43:54;;;;;;;;;;;25.20;99.90;;;;;;5068134;28;20015;-83
2021/10/11 09:46:21;;;;;;;;;;;25.30;99.90;;;;;;5071894;28;19912;-83
2021/10/11 09:48:48;;;;;;;;;;;25.10;99.90;;;;;;5060970;28;19913;-83
2021/10/11 09:51:13;;;;;;;;;;;24.20;99.90;;;;;;5063072;28;20394;-83
2021/10/11 09:53:39;;;;;;;;;;;23.40;99.90;;;;;;5058004;28;19921;-83
2021/10/11 09:56:04;;;;;;;;;;;22.80;99.90;;;;;;5059803;28;19936;-83
2021/10/11 09:58:30;;;;;;;;;;;22.30;99.90;;;;;;5060719;28;20304;-83
2021/10/11 10:00:55;;;;;;;;;;;21.80;99.90;;;;;;5072746;28;19909;-83
2021/10/11 10:03:21;;;;;;;;;;;21.40;99.90;;;;;;5059119;28;19913;-83
2021/10/11 10:05:47;;;;;;;;;;;21.00;99.90;;;;;;5057624;28;19951;-82
2021/10/11 10:08:22;;;;;;;;;;;20.50;99.90;;;;;;5057207;28;19909;-82
2021/10/11 10:10:55;;;;;;;;;;;20.20;99.90;;;;;;5057410;28;19920;-81
2021/10/11 10:13:21;;;;;;;;;;;19.90;99.90;;;;;;5069244;28;20387;-82
2021/10/11 10:15:48;;;;;;;;;;;19.80;99.90;;;;;;5071568;28;20323;-82
2021/10/11 10:18:17;;;;;;;;;;;19.60;99.90;;;;;;5076319;28;19967;-82
2021/10/11 10:20:49;;;;;;;;;;;19.50;99.90;;;;;;5075920;28;20007;-82
2021/10/11 10:23:34;;;;;;;;;;;19.50;99.90;;;;;;5075974;28;19916;-82
2021/10/11 10:26:01;;;;;;;;;;;19.60;99.90;;;;;;5061441;28;19913;-82
2021/10/11 10:28:42;;;;;;;;;;;19.60;99.90;;;;;;5068446;28;20031;-82
2021/10/11 10:31:08;;;;;;;;;;;19.70;99.90;;;;;;5074035;28;19913;-81
2021/10/11 10:33:35;;;;;;;;;;;19.70;99.90;;;;;;5064589;28;20106;-82
2021/10/11 10:36:01;;;;;;;;;;;19.70;99.90;;;;;;5092085;28;19939;-82
2021/10/11 10:38:27;;;;;;;;;;;19.70;99.90;;;;;;5081400;28;19916;-82
2021/10/11 10:40:53;;;;;;;;;;;19.80;99.90;;;;;;5090356;28;20384;-82
2021/10/11 10:43:19;;;;;;;;;;;19.90;99.90;;;;;;5076888;28;19917;-81
2021/10/11 10:45:48;;;;;;;;;;;19.90;99.90;;;;;;5078621;28;19920;-83
2021/10/11 10:48:24;;;;;;;;;;;20.00;99.90;;;;;;5067519;28;20351;-82
2021/10/11 10:50:51;;;;;;;;;;;20.20;99.90;;;;;;5064754;28;19960;-82
2021/10/11 10:53:16;;;;;;;;;;;20.60;99.90;;;;;;5072488;28;19913;-83
2021/10/11 10:55:42;;;;;;;;;;;21.00;99.90;;;;;;5071794;28;19923;-82
2021/10/11 10:58:10;;;;;;;;;;;21.20;99.90;;;;;;5076322;28;19912;-83
2021/10/11 11:00:36;;;;;;;;;;;21.20;99.90;;;;;;5073933;28;19913;-83
2021/10/11 11:03:01;;;;;;;;;;;21.20;99.90;;;;;;5074022;28;19912;-83
2021/10/11 11:05:28;;;;;;;;;;;21.10;99.90;;;;;;5070467;28;19913;-83
2021/10/11 11:07:55;;;;;;;;;;;20.80;99.90;;;;;;5073976;28;20530;-83
2021/10/11 11:10:21;;;;;;;;;;;20.60;99.90;;;;;;5067840;28;19920;-82
2021/10/11 11:12:54;;;;;;;;;;;20.10;99.90;;;;;;5078228;28;19921;-83
2021/10/11 11:15:39;;;;;;;;;;;19.70;99.90;;;;;;5080387;28;19962;-83
2021/10/11 11:18:13;;;;;;;;;;;19.30;99.90;;;;;;5074880;28;19916;-82
2021/10/11 11:20:40;;;;;;;;;;;18.90;99.90;;;;;;5065410;28;19958;-82
2021/10/11 11:23:07;;;;;;;;;;;18.50;99.90;;;;;;5070108;28;19984;-83
2021/10/11 11:25:34;;;;;;;;;;;18.10;99.90;;;;;;5092643;28;19912;-83
2021/10/11 11:28:00;;;;;;;;;;;17.80;99.90;;;;;;5072471;28;20555;-83
2021/10/11 11:30:26;;;;;;;;;;;17.60;99.90;;;;;;5077397;28;20056;-83
2021/10/11 11:32:52;;;;;;;;;;;17.30;99.90;;;;;;5070994;28;19916;-83
2021/10/11 11:35:17;;;;;;;;;;;17.10;99.90;;;;;;5074702;28;19913;-83
2021/10/11 11:37:46;;;;;;;;;;;17.10;99.90;;;;;;5073819;28;20395;-83
2021/10/11 11:40:12;;;;;;;;;;;17.00;99.90;;;;;;5081082;28;20254;-84
2021/10/11 11:42:37;;;;;;;;;;;16.90;99.90;;;;;;5070775;28;19959;-84
2021/10/11 11:45:03;;;;;;;;;;;16.90;99.90;;;;;;5077393;28;20044;-84
2021/10/11 11:47:29;;;;;;;;;;;16.90;1.00;;;;;;5077351;28;19920;-83
2021/10/11 11:49:54;;;;;;;;;;;17.00;1.00;;;;;;5072998;28;19944;-83
2021/10/11 11:52:20;;;;;;;;;;;17.20;99.90;;;;;;5068539;28;20004;-83
2021/10/11 11:54:52;;;;;;;;;;;17.40;99.90;;;;;;5078512;28;19923;-82
2021/10/11 11:57:21;;;;;;;;;;;17.60;99.90;;;;;;5077808;28;19928;-82
2021/10/11 11:59:48;;;;;;;;;;;17.90;99.90;;;;;;5069400;28;20381;-83
2021/10/11 12:02:14;;;;;;;;;;;18.20;99.90;;;;;;5075230;28;19912;-83
2021/10/11 12:04:43;;;;;;;;;;;18.60;99.90;;;;;;5077737;28;19924;-82
2021/10/11 12:07:10;;;;;;;;;;;19.00;99.90;;;;;;5075284;28;19996;-83
2021/10/11 12:09:35;;;;;;;;;;;19.30;99.90;;;;;;5075902;28;19920;-83
2021/10/11 12:12:02;;;;;;;;;;;19.60;99.90;;;;;;5077849;28;19913;-83
2021/10/11 12:14:27;;;;;;;;;;;19.80;99.90;;;;;;5072501;28;19918;-82
2021/10/11 12:17:00;;;;;;;;;;;19.80;99.90;;;;;;5074597;28;20509;-83
2021/10/11 12:19:27;;;;;;;;;;;19.60;99.90;;;;;;5072192;28;19955;-83
2021/10/11 12:21:53;;;;;;;;;;;19.40;99.90;;;;;;5070637;28;19913;-83
2021/10/11 12:24:18;;;;;;;;;;;19.30;99.90;;;;;;5069273;28;19921;-83
2021/10/11 12:26:45;;;;;;;;;;;19.30;99.90;;;;;;5066622;28;19919;-83
2021/10/11 12:29:10;;;;;;;;;;;19.40;99.90;;;;;;5076481;28;20285;-83
2021/10/11 12:31:36;;;;;;;;;;;19.50;99.90;;;;;;5073085;28;19922;-83
2021/10/11 12:34:13;;;;;;;;;;;19.60;99.90;;;;;;5072751;28;19913;-83
2021/10/11 12:36:45;;;;;;;;;;;19.50;99.90;;;;;;5071334;28;20423;-82
2021/10/11 12:39:11;;;;;;;;;;;19.50;99.90;;;;;;5071591;28;19958;-82
2021/10/11 12:41:36;;;;;;;;;;;19.60;99.90;;;;;;5068499;28;20357;-83
2021/10/11 12:44:04;;;;;;;;;;;19.70;99.90;;;;;;5062947;28;19984;-82
2021/10/11 12:46:39;;;;;;;;;;;19.80;99.90;;;;;;5068492;28;19920;-82
2021/10/11 12:49:04;;;;;;;;;;;20.00;99.90;;;;;;5078742;28;20340;-82
2021/10/11 12:51:31;;;;;;;;;;;20.10;99.90;;;;;;5078963;28;19962;-83
2021/10/11 12:54:07;;;;;;;;;;;20.10;99.90;;;;;;5074932;28;19920;-83
2021/10/11 12:56:34;;;;;;;;;;;20.20;99.90;;;;;;5067709;28;19956;-83
2021/10/11 12:59:00;;;;;;;;;;;20.20;99.90;;;;;;5070798;28;19912;-83
2021/10/11 13:01:27;;;;;;;;;;;20.10;99.90;;;;;;5073035;28;20010;-83
2021/10/11 13:03:52;;;;;;;;;;;20.10;99.90;;;;;;5078465;28;19913;-83
2021/10/11 13:06:25;;;;;;;;;;;20.10;99.90;;;;;;5071545;28;19982;-83
2021/10/11 13:08:51;;;;;;;;;;;20.00;99.90;;;;;;5067151;28;19913;-83
2021/10/11 13:11:17;;;;;;;;;;;19.80;99.90;;;;;;5078602;28;20003;-82
2021/10/11 13:13:42;;;;;;;;;;;19.60;99.90;;;;;;5074620;28;20042;-81
2021/10/11 13:16:08;;;;;;;;;;;19.50;99.90;;;;;;5063024;28;19956;-83
2021/10/11 13:18:33;;;;;;;;;;;19.40;99.90;;;;;;5075799;28;20029;-82
2021/10/11 13:20:59;;;;;;;;;;;19.30;99.90;;;;;;5074251;28;19920;-82
2021/10/11 13:23:25;;;;;;;;;;;19.20;99.90;;;;;;5071449;28;20008;-83
2021/10/11 13:25:51;;;;;;;;;;;19.30;99.90;;;;;;5074692;28;19944;-82
2021/10/11 13:28:16;;;;;;;;;;;19.40;99.90;;;;;;5079177;28;19951;-83
2021/10/11 13:42:04;;;;;;;;;;;19.10;99.90;;;;;;5059300;28;19949;-82
2021/10/11 14:27:49;;;;;;;;;;;20.30;99.90;;;;;;5070713;28;19981;-82
2021/10/11 14:30:20;;;;;;;;;;;20.40;99.90;;;;;;5079061;28;19909;-82
2021/10/11 15:55:55;;;;;;;;;;;16.50;99.90;;;;;;5073959;28;19923;-82
2021/10/11 16:00:42;;;;;;;;;;;16.30;99.90;;;;;;5071859;28;19919;-81
2021/10/11 16:03:17;;;;;;;;;;;16.10;99.90;;;;;;5079561;28;19955;-81
2021/10/11 16:05:44;;;;;;;;;;;16.00;1.00;;;;;;5070937;28;19917;-82
2021/10/11 16:08:09;;;;;;;;;;;16.00;1.00;;;;;;5078326;28;19917;-82
2021/10/11 16:10:35;;;;;;;;;;;15.90;1.00;;;;;;5072603;28;19943;-82
2021/10/11 16:13:00;;;;;;;;;;;15.90;1.00;;;;;;5082689;28;19905;-82
2021/10/11 16:15:26;;;;;;;;;;;15.80;1.00;;;;;;5074621;28;19922;-82
2021/10/11 16:17:51;;;;;;;;;;;15.80;1.00;;;;;;5072679;28;19913;-82
2021/10/11 16:20:17;;;;;;;;;;;15.80;1.00;;;;;;5070166;28;19918;-82
2021/10/11 16:22:42;;;;;;;;;;;15.70;1.00;;;;;;5076527;28;19912;-82
2021/10/11 16:25:09;;;;;;;;;;;15.70;1.00;;;;;;5071656;28;19916;-82
2021/10/11 16:27:35;;;;;;;;;;;15.60;1.00;;;;;;5079370;28;20007;-82
2021/10/11 16:30:00;;;;;;;;;;;15.50;1.00;;;;;;5073219;28;20407;-82
2021/10/11 16:32:26;;;;;;;;;;;15.40;1.00;;;;;;5076112;28;19963;-82
2021/10/11 16:34:51;;;;;;;;;;;15.40;1.00;;;;;;5077318;28;20031;-81
2021/10/11 16:37:17;;;;;;;;;;;15.40;25.70;;;;;;5074981;28;19920;-82
2021/10/11 16:39:42;;;;;;;;;;;15.30;98.30;;;;;;5067040;28;19927;-82